Memphis, TN

12:47 PM CDT on April 27, 2015 (GMT -0500)
Sea Isle | | Change Station
CLOSE
Current Station
Personal Weather Station
Location: Memphis, TN
Elevation: 276 ft
Nearby Weather Stations
Active Advisory: Flood Advisory

Elev 276 ft 35.09 °N, 89.89 °W | Updated 9 seconds ago

Overcast
Overcast
63.1 °F
Feels Like 63.1 °F
N
3.1
Wind Variable Wind from SW
Gusts 4.5 mph

Today
High -- | Low -- °F
--% Chance of Precip.
Yesterday
High -- | Low -- °F
Precip. -- in
6:13 AM 7:41 PM
Waxing Gibbous, 66% visible
Pressure 29.99 in
Visibility 10.0 miles
Clouds Few 6000 ft
Mostly Cloudy 15000 ft
Overcast 25000 ft
Dew Point 46 °F
Humidity 54%
Rainfall 0.00 in
Snow Depth Not available.
UV 3 out of 12
Pollen 9.70 out of 12
Air Quality Not available.
Flu Activity Sporadic
METAR KMEM 271654Z 05014KT 10SM FEW060 BKN150 OVC250 16/05 A2999 RMK AO2 SLP154 T01560050

More Conditions Fewer Conditions

Pressure 29.99 in
Visibility 10.0 miles
Clouds Few 6000 ft
Mostly Cloudy 15000 ft
Overcast 25000 ft
Dew Point 46 °F
Humidity 54%
Rainfall 0.00 in
Snow Depth Not available.
UV 3 out of 12
Pollen 9.70 out of 12
Air Quality Not available.
Flu Activity Sporadic
METAR KMEM 271654Z 05014KT 10SM FEW060 BKN150 OVC250 16/05 A2999 RMK AO2 SLP154 T01560050

More Conditions Fewer Conditions

10-Day Weather Forecast

Almanac

Astronomy

Apr. 27, 2015 Rise Set
Actual Time
Civil Twilight
Nautical Twilight
Astronomical Twilight
Moon
Length of Visible Light
Length of Day
Tomorrow will be .
, % of the Moon is Illuminated

Today's Extremes

State Highs State Lows

Community

WunderPhotos

Upload Photos

1,817,367 photos uploaded!

WunderBlogs® & News

Nearby

Air Quality

  Air Quality AQ Index Pollutant
Not available.

Snow Depth

Station Depth Elevation

Earthquake Activity

City Distance Mag. Time & Date
Minimum magnitude displayed is 2.5.

Coastal Water Temperatures

Place Temperature

Stations

Nearby Weather Stations

Station Location Temp. Windchill Dew Point Humidity Wind Precip. Elev Updated Type
                   
Flood Advisory
Statement as of 11:47 AM CDT on April 27, 2015

The Flood Advisory continues for
the Mississippi River at Memphis
* until Tuesday April 28.
* At 11 am Monday the stage was 28.4 feet.
* Flood stage is 34.0 feet.
* Forecast... the river will rise to near 28.5 feet Monday April 27.
* At 29.0 feet... in Arkansas. The evacuation Route from camps south
of Hopefield Chute is cut off. Water is lapping the levee near
sulcer Road west of South Lake. River is touching the levee at Blue
Lake.


Lat... Lon 3539 9025 3539 8995 3533 9005 3513 9004
      3491 9008 3491 9041